Dayton, OH (45439)

12:15 PM EDT on August 31, 2015 (GMT -0400)
South Dayton Suburbs | | Change Station
CLOSE
Current Station
Personal Weather Station
Location: Moraine, OH
Elevation: 751 ft
Nearby Weather Stations

Elev 751 ft 39.69 °N, 84.21 °W | Updated 27 seconds ago

Clear
Clear
82.0 °F
Feels Like 85 °F
N
3.0
Wind Variable Wind from NW
Gusts 5.0 mph

Today
High -- | Low -- °F
--% Chance of Precip.
Yesterday
High -- | Low -- °F
Precip. -- in
7:03 AM 8:09 PM
Waning Gibbous, 95% visible
Pressure 30.12 in
Visibility 10.0 miles
Clouds Clear
Heat Index 85 °F
Dew Point 69 °F
Humidity 64%
Rainfall 0.00 in
Snow Depth Not available.
UV 8 out of 12
Pollen 10.30 out of 12
Air Quality Not available.
Flu Activity Not available.
METAR KMGY 311553Z AUTO 23008KT 10SM CLR 27/19 A3014 RMK AO2 SLP200 T02670194
Pressure 30.12 in
Visibility 10.0 miles
Clouds Clear
Heat Index 85 °F
Dew Point 69 °F
Humidity 64%
Rainfall 0.00 in
Snow Depth Not available.
UV 8 out of 12
Pollen 10.30 out of 12
Air Quality Not available.
Flu Activity Not available.
METAR KMGY 311553Z AUTO 23008KT 10SM CLR 27/19 A3014 RMK AO2 SLP200 T02670194

10-Day Weather Forecast

×

Almanac

Astronomy

Aug. 31, 2015 Rise Set
Actual Time
Civil Twilight
Nautical Twilight
Astronomical Twilight
Moon
Length of Visible Light
Length of Day
Tomorrow will be .
, % of the Moon is Illuminated

Today's Extremes

State Highs State Lows

Community

WunderPhotos

Upload Photos

1,851,301 photos uploaded!

WunderBlogs® & News

Nearby

Air Quality

  Air Quality AQ Index Pollutant
Not available.

Snow Depth

Station Depth Elevation

Earthquake Activity

City Distance Mag. Time & Date
Minimum magnitude displayed is 2.5.

Coastal Water Temperatures

Place Temperature

Stations

Nearby Weather Stations

Station Location Temp. Windchill Dew Point Humidity Wind Precip. Elev Updated Type